Time;durP1;ratioP1;P1;durP2;ratioP2;P2;SDS_P1;SDS_P2;PMS_P1;PMS_P2;Temp;Humidity;BMP_temperature;BMP_pressure;BME280_temperature;BME280_humidity;BME280_pressure;Samples;Min_cycle;Max_cycle;Signal;HPM_P1;HPM_P2
2021/05/28 00:01:39;;;;;;;5.85;1.30;;;;;;;23.51;41.54;99650.13;4484418;32;34339;-61
2021/05/28 00:04:06;;;;;;;7.43;1.30;;;;;;;23.50;41.58;99655.78;4484226;32;33228;-61
2021/05/28 00:06:34;;;;;;;4.00;1.42;;;;;;;23.50;41.51;99651.19;4484521;32;33628;-62
2021/05/28 00:09:03;;;;;;;5.45;1.30;;;;;;;23.49;41.49;99652.22;4484609;32;33781;-61
2021/05/28 00:11:30;;;;;;;7.62;1.50;;;;;;;23.48;41.46;99649.75;4483927;32;34432;-62
2021/05/28 00:13:58;;;;;;;7.28;1.98;;;;;;;23.48;41.43;99655.19;4484902;32;33095;-61
2021/05/28 00:16:25;;;;;;;7.62;1.50;;;;;;;23.45;41.43;99653.75;4484615;32;34499;-62
2021/05/28 00:18:53;;;;;;;9.60;1.73;;;;;;;23.45;41.42;99648.31;4484403;32;33926;-61
2021/05/28 00:21:21;;;;;;;8.85;1.42;;;;;;;23.45;41.30;99644.75;4484533;32;34261;-61
2021/05/28 00:23:48;;;;;;;9.68;1.95;;;;;;;23.45;41.29;99650.19;4484776;32;34411;-61
2021/05/28 00:26:16;;;;;;;5.65;1.50;;;;;;;23.43;41.31;99651.25;4484318;32;34645;-61
2021/05/28 00:28:48;;;;;;;6.87;1.50;;;;;;;23.42;41.25;99652.34;4484224;32;33812;-62
2021/05/28 00:31:17;;;;;;;7.50;1.70;;;;;;;23.42;41.21;99655.06;4483914;32;34489;-61
2021/05/28 00:33:46;;;;;;;7.37;1.77;;;;;;;23.41;41.20;99652.56;4484357;32;33023;-61
2021/05/28 00:36:14;;;;;;;12.63;1.83;;;;;;;23.41;41.29;99647.12;4484440;32;33598;-61
2021/05/28 00:38:41;;;;;;;9.50;1.62;;;;;;;23.40;41.36;99646.28;4484398;32;33590;-61
2021/05/28 00:41:10;;;;;;;5.07;1.58;;;;;;;23.40;41.45;99650.87;4484591;32;34530;-61
2021/05/28 00:43:37;;;;;;;10.68;1.80;;;;;;;23.39;41.43;99643.78;4484476;32;33051;-61
2021/05/28 00:46:05;;;;;;;6.03;1.48;;;;;;;23.40;41.40;99653.62;4484241;32;34650;-61
2021/05/28 00:48:32;;;;;;;5.95;1.80;;;;;;;23.40;41.25;99648.16;4484411;32;34863;-62
2021/05/28 00:51:01;;;;;;;6.32;1.60;;;;;;;23.39;41.35;99652.78;4483707;32;33668;-61
2021/05/28 00:53:29;;;;;;;7.50;1.45;;;;;;;23.41;41.31;99649.84;4483723;32;33224;-61
2021/05/28 00:55:56;;;;;;;4.55;1.65;;;;;;;23.38;41.26;99653.84;4484309;32;34009;-60
2021/05/28 00:58:24;;;;;;;9.70;1.33;;;;;;;23.39;41.23;99657.41;4483006;32;33628;-61
2021/05/28 01:00:52;;;;;;;6.85;1.60;;;;;;;23.38;41.21;99658.47;4470036;32;33623;-61
2021/05/28 01:03:19;;;;;;;5.57;1.70;;;;;;;23.38;41.17;99663.91;4484153;32;33070;-61
2021/05/28 01:05:47;;;;;;;6.30;1.33;;;;;;;23.37;41.17;99654.09;4484270;32;33488;-61
2021/05/28 01:08:15;;;;;;;4.32;1.42;;;;;;;23.37;41.21;99656.81;4484087;32;34700;-61
2021/05/28 01:10:43;;;;;;;6.68;1.75;;;;;;;23.36;41.13;99649.69;4482868;32;34726;-61
2021/05/28 01:13:11;;;;;;;5.90;1.65;;;;;;;23.36;41.12;99657.84;4484141;32;33335;-61
2021/05/28 01:15:39;;;;;;;5.40;1.52;;;;;;;23.35;41.09;99648.03;4484001;32;35844;-61
2021/05/28 01:18:07;;;;;;;4.22;1.50;;;;;;;23.34;41.00;99658.09;4484168;32;34872;-61
2021/05/28 01:20:35;;;;;;;6.35;1.58;;;;;;;23.33;41.07;99658.31;4484224;32;33730;-61
2021/05/28 01:23:03;;;;;;;6.72;1.62;;;;;;;23.33;41.07;99661.06;4483824;32;34038;-61
2021/05/28 01:25:31;;;;;;;3.35;1.33;;;;;;;23.31;41.18;99663.16;4484045;32;33829;-61
2021/05/28 01:27:58;;;;;;;4.68;1.60;;;;;;;23.32;41.09;99660.22;4484124;32;33531;-61
2021/05/28 01:30:26;;;;;;;4.78;1.60;;;;;;;23.31;41.06;99655.81;4483797;32;34428;-61
2021/05/28 01:32:54;;;;;;;18.12;1.90;;;;;;;23.30;41.06;99651.44;4484080;32;33459;-61
2021/05/28 01:35:22;;;;;;;4.60;1.50;;;;;;;23.31;41.03;99652.25;4483954;32;33708;-61
2021/05/28 01:37:50;;;;;;;7.05;1.40;;;;;;;23.29;41.08;99657.13;4483860;32;33920;-61
2021/05/28 01:40:19;;;;;;;2.95;1.10;;;;;;;23.30;41.05;99665.06;4484017;32;33874;-61
2021/05/28 01:42:47;;;;;;;3.03;1.48;;;;;;;23.29;40.99;99659.84;4484204;32;33306;-61
2021/05/28 01:45:15;;;;;;;3.50;1.55;;;;;;;23.31;41.03;99668.59;4483816;32;34552;-60
2021/05/28 01:47:43;;;;;;;3.22;1.20;;;;;;;23.30;41.02;99665.06;4483878;32;34509;-61
2021/05/28 01:50:11;;;;;;;3.12;1.35;;;;;;;23.28;41.01;99661.75;4483899;32;35309;-61
2021/05/28 01:52:39;;;;;;;6.72;1.70;;;;;;;23.28;40.98;99659.00;4483984;32;34209;-61
2021/05/28 01:55:14;;;;;;;4.07;1.50;;;;;;;23.30;40.95;99661.50;4483766;32;33763;-61
2021/05/28 01:57:42;;;;;;;2.53;1.35;;;;;;;23.28;40.95;99660.91;4483595;32;33828;-60
2021/05/28 02:00:11;;;;;;;4.28;1.45;;;;;;;23.28;40.98;99663.63;4483831;32;35184;-61
2021/05/28 02:02:39;;;;;;;3.87;1.35;;;;;;;23.28;40.94;99671.78;4483330;32;33323;-61
2021/05/28 02:05:08;;;;;;;3.83;1.50;;;;;;;23.29;40.93;99674.28;4483589;32;34682;-61
2021/05/28 02:07:37;;;;;;;3.20;1.27;;;;;;;23.27;40.88;99670.12;4482464;32;34965;-61
2021/05/28 02:10:06;;;;;;;4.62;1.60;;;;;;;23.27;40.94;99670.97;4483584;32;33895;-61
2021/05/28 02:12:33;;;;;;;7.25;1.70;;;;;;;23.28;40.96;99674.53;4480733;32;83296;-61
2021/05/28 02:15:01;;;;;;;8.70;1.70;;;;;;;23.26;40.96;99672.00;4483642;32;33813;-61
2021/05/28 02:17:29;;;;;;;3.60;1.37;;;;;;;23.28;40.95;99671.78;4483541;32;34672;-61
2021/05/28 02:19:57;;;;;;;2.90;1.33;;;;;;;23.26;40.96;99663.84;4483413;32;33658;-60
2021/05/28 02:22:24;;;;;;;5.25;1.60;;;;;;;23.25;40.88;99661.34;4483431;32;33928;-61
2021/05/28 02:24:52;;;;;;;5.30;1.40;;;;;;;23.26;40.85;99663.00;4483306;32;35033;-61
2021/05/28 02:27:20;;;;;;;8.32;1.50;;;;;;;23.24;40.82;99659.69;4483180;32;33837;-61
2021/05/28 02:29:52;;;;;;;4.15;1.70;;;;;;;23.24;40.77;99659.69;4483323;32;34339;-61
2021/05/28 02:32:19;;;;;;;2.97;1.25;;;;;;;23.24;40.74;99665.16;4483426;32;33502;-61
2021/05/28 02:34:47;;;;;;;2.83;1.37;;;;;;;23.21;40.71;99650.09;4483279;32;33865;-61
2021/05/28 02:37:14;;;;;;;3.65;1.60;;;;;;;23.21;40.59;99663.69;4483198;32;34837;-60
2021/05/28 02:39:42;;;;;;;6.40;1.35;;;;;;;23.22;40.67;99650.91;4483461;32;33731;-61
2021/05/28 02:42:10;;;;;;;2.20;1.20;;;;;;;23.20;40.73;99653.03;4481783;32;33027;-61
2021/05/28 02:44:38;;;;;;;4.07;1.52;;;;;;;23.20;40.74;99653.88;4483159;32;33678;-61
2021/05/28 02:47:07;;;;;;;3.28;1.42;;;;;;;23.20;40.83;99647.59;4483022;32;33710;-61
2021/05/28 02:49:35;;;;;;;3.60;1.30;;;;;;;23.18;40.74;99650.56;4483025;32;33788;-61
2021/05/28 02:52:03;;;;;;;3.50;1.30;;;;;;;23.18;40.78;99656.00;4481467;32;33940;-62
2021/05/28 02:54:32;;;;;;;2.53;1.35;;;;;;;23.21;40.67;99654.69;4479993;32;33863;-61
2021/05/28 02:56:59;;;;;;;3.60;1.40;;;;;;;23.21;40.80;99662.88;4483048;32;33973;-62
2021/05/28 02:59:27;;;;;;;3.47;1.37;;;;;;;23.19;40.86;99659.56;4483049;32;33668;-61
2021/05/28 03:01:54;;;;;;;3.35;1.40;;;;;;;23.19;40.87;99656.84;4482122;32;33999;-61
2021/05/28 03:04:22;;;;;;;4.32;1.80;;;;;;;23.18;40.85;99664.19;4480916;32;33689;-61
2021/05/28 03:06:50;;;;;;;3.12;1.10;;;;;;;23.19;40.86;99667.72;4482652;32;33840;-61
2021/05/28 03:09:17;;;;;;;3.17;1.65;;;;;;;23.18;40.97;99672.34;4482688;32;33681;-61
2021/05/28 03:11:45;;;;;;;2.42;1.30;;;;;;;23.20;40.93;99672.09;4482472;32;33266;-61
2021/05/28 03:14:12;;;;;;;3.15;1.55;;;;;;;23.20;40.92;99672.94;4482771;32;33763;-61
2021/05/28 03:16:40;;;;;;;2.28;1.52;;;;;;;23.22;40.86;99667.25;4484804;32;33784;-61
2021/05/28 03:19:16;;;;;;;2.50;1.40;;;;;;;23.19;40.86;99673.16;4484940;32;33543;-61
2021/05/28 03:24:30;;;;;;;4.45;1.40;;;;;;;23.18;40.71;99672.34;4484789;32;33849;-61
2021/05/28 03:26:58;;;;;;;1.52;1.23;;;;;;;23.17;40.68;99679.69;4484997;32;33861;-61
2021/05/28 03:29:25;;;;;;;4.22;1.40;;;;;;;23.16;40.76;99669.81;4484665;32;33483;-61
2021/05/28 03:31:53;;;;;;;5.12;1.60;;;;;;;23.16;40.73;99678.00;4484872;32;33267;-61
2021/05/28 03:34:21;;;;;;;6.60;1.50;;;;;;;23.15;40.84;99675.50;4484834;32;33878;-61
2021/05/28 03:36:50;;;;;;;4.07;1.37;;;;;;;23.15;40.88;99673.63;4484780;32;34566;-61
2021/05/28 03:39:17;;;;;;;4.90;1.60;;;;;;;23.15;40.85;99679.06;4485118;32;33754;-61
2021/05/28 03:41:45;;;;;;;2.83;1.50;;;;;;;23.17;40.82;99686.97;4484834;32;33250;-61
2021/05/28 03:44:12;;;;;;;4.15;1.40;;;;;;;23.17;40.81;99685.12;4484579;32;33783;-61
2021/05/28 03:46:40;;;;;;;5.78;1.50;;;;;;;23.15;40.82;99679.06;4484614;32;34063;-61
2021/05/28 03:49:08;;;;;;;3.22;1.30;;;;;;;23.16;40.77;99680.72;4484852;32;34268;-61
2021/05/28 03:51:35;;;;;;;4.10;1.90;;;;;;;23.16;40.76;99678.00;4484616;32;34012;-61
2021/05/28 03:54:03;;;;;;;7.40;1.77;;;;;;;23.16;40.72;99688.06;4484645;31;34811;-60
2021/05/28 03:56:31;;;;;;;3.22;1.50;;;;;;;23.14;40.82;99691.00;4484530;32;33938;-61
2021/05/28 03:58:59;;;;;;;3.53;1.50;;;;;;;23.16;40.72;99691.59;4484679;32;34025;-61
2021/05/28 04:01:26;;;;;;;4.40;1.33;;;;;;;23.15;40.72;99691.84;4484688;32;33360;-61
2021/05/28 04:03:54;;;;;;;5.50;1.67;;;;;;;23.16;40.75;99701.66;4484891;32;33817;-61
2021/05/28 04:06:22;;;;;;;5.43;1.67;;;;;;;23.15;40.72;99689.94;4484871;32;33690;-61
2021/05/28 04:08:49;;;;;;;4.07;1.37;;;;;;;23.17;40.69;99690.56;4484669;32;33603;-61
2021/05/28 04:11:18;;;;;;;4.50;1.40;;;;;;;23.15;40.69;99689.13;4484659;32;34014;-61
2021/05/28 04:13:46;;;;;;;5.62;1.58;;;;;;;23.15;40.66;99686.41;4484422;32;35338;-61
2021/05/28 04:16:13;;;;;;;8.30;1.60;;;;;;;23.14;40.68;99685.56;4484468;32;33954;-61
2021/05/28 04:18:41;;;;;;;4.47;1.80;;;;;;;23.11;40.73;99694.16;4484423;32;33498;-61
2021/05/28 04:21:09;;;;;;;4.78;1.40;;;;;;;23.09;40.75;99692.75;4483697;32;33000;-61
2021/05/28 04:23:36;;;;;;;6.18;2.80;;;;;;;23.09;40.57;99690.03;4484569;32;33838;-61
2021/05/28 04:26:05;;;;;;;3.97;1.55;;;;;;;23.10;40.51;99676.19;4484178;32;34714;-61
2021/05/28 04:28:32;;;;;;;7.82;1.50;;;;;;;23.08;40.75;99672.00;4484563;32;34855;-61
2021/05/28 04:31:00;;;;;;;4.53;1.73;;;;;;;23.09;40.63;99684.59;4484446;32;33257;-61
2021/05/28 04:33:28;;;;;;;6.65;1.83;;;;;;;23.13;40.60;99677.62;4484320;32;33738;-66
2021/05/28 04:35:55;;;;;;;17.23;2.60;;;;;;;23.13;40.58;99677.62;4484568;32;33680;-61
2021/05/28 04:38:23;;;;;;;27.95;3.53;;;;;;;23.10;40.61;99691.69;4484396;32;33763;-62
2021/05/28 04:40:53;;;;;;;16.85;2.65;;;;;;;23.11;40.55;99675.13;4484175;32;34295;-62
2021/05/28 04:43:21;;;;;;;12.65;2.30;;;;;;;23.11;40.42;99688.72;4484178;32;34496;-61
2021/05/28 04:45:48;;;;;;;7.72;2.03;;;;;;;23.11;40.15;99690.63;4484519;32;34757;-61
2021/05/28 04:48:16;;;;;;;12.52;2.65;;;;;;;23.08;40.15;99672.87;4484127;32;34065;-61
2021/05/28 04:50:44;;;;;;;7.95;2.10;;;;;;;23.08;40.15;99685.62;4484457;32;33309;-61
2021/05/28 04:53:11;;;;;;;15.80;2.22;;;;;;;23.06;40.10;99694.03;4484423;32;34067;-61
2021/05/28 04:55:39;;;;;;;9.77;2.10;;;;;;;23.08;40.02;99696.50;4484128;32;33685;-61
2021/05/28 04:58:07;;;;;;;10.10;1.95;;;;;;;23.04;39.99;99693.44;4483037;32;33729;-63
2021/05/28 05:00:34;;;;;;;9.20;2.00;;;;;;;23.04;39.81;99698.88;4484237;32;33384;-61
2021/05/28 05:03:03;;;;;;;8.57;2.30;;;;;;;23.06;39.82;99699.47;4484130;32;33636;-61
2021/05/28 05:05:30;;;;;;;9.00;1.90;;;;;;;23.05;39.71;99703.25;4483335;32;33660;-61
2021/05/28 05:07:58;;;;;;;10.30;2.33;;;;;;;23.06;39.68;99702.19;4483975;32;33672;-62
2021/05/28 05:10:26;;;;;;;10.00;2.08;;;;;;;23.05;39.74;99710.59;4484305;32;33249;-61
2021/05/28 05:12:54;;;;;;;7.87;2.33;;;;;;;23.03;39.58;99701.81;4483957;32;33555;-61
2021/05/28 05:15:22;;;;;;;4.87;1.70;;;;;;;23.02;39.65;99694.69;4484367;32;33797;-61
2021/05/28 05:17:50;;;;;;;8.43;1.95;;;;;;;22.99;39.62;99704.16;4484052;32;33696;-61
2021/05/28 05:20:17;;;;;;;7.07;1.90;;;;;;;22.99;39.66;99697.88;4484228;32;33348;-62
2021/05/28 05:22:45;;;;;;;6.32;1.80;;;;;;;23.00;39.57;99705.81;4484034;32;34685;-61
2021/05/28 05:25:13;;;;;;;4.78;1.45;;;;;;;23.00;39.58;99707.72;4483492;32;33563;-62
2021/05/28 05:27:40;;;;;;;6.47;1.77;;;;;;;23.00;39.63;99705.81;4483560;32;34371;-61
2021/05/28 05:30:08;;;;;;;9.57;1.92;;;;;;;23.01;39.55;99721.09;4483934;32;33224;-61
2021/05/28 05:32:36;;;;;;;8.27;1.80;;;;;;;23.01;39.60;99722.97;4483863;32;33855;-62
2021/05/28 05:35:05;;;;;;;5.43;1.58;;;;;;;23.02;39.63;99719.19;4483999;32;33974;-62
2021/05/28 05:37:32;;;;;;;4.07;1.70;;;;;;;23.03;39.57;99720.84;4483240;32;34467;-62
2021/05/28 05:40:00;;;;;;;13.18;2.08;;;;;;;23.02;39.50;99720.03;4469809;32;34083;-61
2021/05/28 05:42:28;;;;;;;7.57;1.92;;;;;;;23.00;39.41;99714.00;4483989;32;33831;-61
2021/05/28 05:44:55;;;;;;;3.97;1.40;;;;;;;23.00;39.38;99710.44;4483731;32;33940;-61
2021/05/28 05:47:23;;;;;;;8.05;1.70;;;;;;;22.98;39.52;99731.59;4483710;32;33571;-62
2021/05/28 05:49:50;;;;;;;5.30;1.87;;;;;;;22.99;39.31;99734.09;4484086;32;33482;-61
2021/05/28 05:52:18;;;;;;;3.95;1.60;;;;;;;22.99;39.20;99735.97;4483790;32;34789;-61
2021/05/28 05:54:46;;;;;;;7.65;2.10;;;;;;;22.97;39.36;99741.63;4483672;32;33748;-62
2021/05/28 05:57:14;;;;;;;4.75;2.00;;;;;;;22.98;39.21;99740.56;4483821;32;33751;-61
2021/05/28 05:59:42;;;;;;;5.50;1.55;;;;;;;22.96;39.27;99744.59;4483752;32;34406;-61
2021/05/28 06:02:10;;;;;;;6.93;1.85;;;;;;;22.96;39.26;99745.41;4483792;32;34405;-62
2021/05/28 06:04:37;;;;;;;3.87;1.45;;;;;;;22.96;39.31;99739.97;4483872;32;33758;-61
2021/05/28 06:07:05;;;;;;;4.65;1.98;;;;;;;22.98;39.19;99750.63;4483751;32;33714;-62
2021/05/28 06:09:32;;;;;;;4.40;1.73;;;;;;;22.98;39.18;99751.47;4483701;32;33279;-61
2021/05/28 06:12:00;;;;;;;8.75;1.92;;;;;;;22.97;39.14;99752.53;4482368;32;33601;-63
2021/05/28 06:14:28;;;;;;;5.22;1.90;;;;;;;22.97;39.02;99757.13;4482902;32;33950;-63
2021/05/28 06:16:56;;;;;;;4.53;1.83;;;;;;;22.97;39.04;99762.56;4483660;32;33694;-62
2021/05/28 06:19:23;;;;;;;4.93;1.80;;;;;;;22.95;39.09;99762.81;4483277;32;33241;-62
2021/05/28 06:21:52;;;;;;;4.10;1.48;;;;;;;22.95;38.83;99764.69;4470782;32;34326;-63
2021/05/28 06:24:19;;;;;;;6.12;1.70;;;;;;;22.91;39.01;99756.16;4483375;32;33933;-63
2021/05/28 06:26:47;;;;;;;5.75;1.87;;;;;;;22.89;39.09;99756.34;4483580;32;33448;-64
2021/05/28 06:29:15;;;;;;;4.18;1.58;;;;;;;22.91;38.79;99759.69;4483266;32;32979;-61
2021/05/28 06:31:42;;;;;;;4.30;1.60;;;;;;;22.95;38.83;99762.81;4481995;32;34070;-62
2021/05/28 06:34:10;;;;;;;4.57;1.80;;;;;;;22.97;38.91;99765.28;4483357;32;34832;-62
2021/05/28 06:36:38;;;;;;;8.13;2.47;;;;;;;22.98;38.94;99764.22;4483115;32;33652;-62
2021/05/28 06:39:07;;;;;;;5.05;1.58;;;;;;;22.99;38.88;99776.78;4483321;32;34795;-62
2021/05/28 06:41:36;;;;;;;;;;;;;;;22.99;38.94;99764.03;4483391;32;35307;-62
2021/05/28 06:44:05;;;;;;;7.87;1.67;;;;;;;23.09;38.71;99764.34;4483263;32;34238;-62
2021/05/28 06:46:35;;;;;;;4.50;1.75;;;;;;;23.03;38.79;99770.66;4483326;32;33390;-63
2021/05/28 06:49:03;;;;;;;3.92;1.52;;;;;;;23.01;38.81;99761.91;4483706;32;33219;-62
2021/05/28 06:51:31;;;;;;;4.55;1.52;;;;;;;23.02;38.83;99760.84;4484971;32;34515;-61
2021/05/28 06:53:58;;;;;;;7.03;2.10;;;;;;;23.02;38.86;99765.47;4484798;31;34448;-61
2021/05/28 06:56:26;;;;;;;4.93;1.30;;;;;;;23.02;38.88;99762.72;4485248;32;33643;-63
2021/05/28 06:58:54;;;;;;;4.43;1.70;;;;;;;23.05;38.89;99767.75;4485132;32;33827;-63
2021/05/28 07:01:21;;;;;;;4.65;1.65;;;;;;;23.04;38.94;99774.25;4485129;32;34850;-62
2021/05/28 07:03:49;;;;;;;5.28;1.48;;;;;;;23.05;38.98;99779.44;4484846;32;34972;-62
2021/05/28 07:06:17;;;;;;;3.25;1.40;;;;;;;23.05;39.01;99776.72;4484906;32;34394;-62
2021/05/28 07:08:47;;;;;;;3.00;1.40;;;;;;;23.06;39.04;99775.66;4484803;32;33553;-63
2021/05/28 07:11:15;;;;;;;3.62;1.40;;;;;;;23.08;39.09;99770.84;4485072;32;33840;-62
2021/05/28 07:13:43;;;;;;;3.65;1.58;;;;;;;23.08;39.05;99778.16;4484759;32;33773;-62
2021/05/28 07:16:10;;;;;;;3.72;1.45;;;;;;;23.09;39.07;99775.22;4485181;32;34515;-62
2021/05/28 07:18:38;;;;;;;3.67;1.42;;;;;;;23.11;39.08;99783.97;4484992;32;33252;-63
2021/05/28 07:21:05;;;;;;;6.47;1.48;;;;;;;23.12;39.08;99779.37;4485421;32;33800;-62
2021/05/28 07:23:33;;;;;;;2.58;1.27;;;;;;;23.14;39.06;99777.28;4485007;32;33122;-63
2021/05/28 07:26:02;;;;;;;4.70;1.70;;;;;;;23.14;39.07;99772.66;4484633;32;34261;-63
2021/05/28 07:28:31;;;;;;;6.85;1.70;;;;;;;23.16;39.12;99772.44;4484159;32;33969;-63
2021/05/28 07:30:59;;;;;;;4.33;1.57;;;;;;;23.16;39.13;99770.53;4485023;32;33734;-62
2021/05/28 07:33:27;;;;;;;4.45;1.30;;;;;;;23.19;39.09;99768.44;4484914;32;33823;-62
2021/05/28 07:35:54;;;;;;;3.62;1.40;;;;;;;23.19;39.15;99779.31;4484809;32;33801;-63
2021/05/28 07:38:22;;;;;;;3.30;1.48;;;;;;;23.20;39.16;99776.38;4485007;32;33267;-62
2021/05/28 07:40:50;;;;;;;3.53;1.48;;;;;;;23.19;39.17;99782.88;4484825;32;34459;-63
2021/05/28 07:43:17;;;;;;;3.12;1.30;;;;;;;23.21;39.18;99777.19;4484767;32;33943;-62
2021/05/28 07:45:53;;;;;;;3.15;1.20;;;;;;;23.21;39.15;99775.31;4484844;32;35075;-62
2021/05/28 07:48:25;;;;;;;4.65;2.05;;;;;;;23.22;39.18;99779.69;4484784;32;33066;-63
2021/05/28 07:50:58;;;;;;;4.10;1.42;;;;;;;23.24;39.16;99780.31;4484861;32;33828;-63
2021/05/28 07:53:27;;;;;;;5.22;1.33;;;;;;;23.23;39.18;99773.19;4484242;32;34823;-62
2021/05/28 07:55:55;;;;;;;4.43;1.35;;;;;;;23.23;39.16;99781.38;4485073;32;33788;-63
2021/05/28 07:58:23;;;;;;;3.67;1.40;;;;;;;23.23;39.16;99788.72;4484658;32;34236;-62
2021/05/28 08:00:51;;;;;;;3.33;1.33;;;;;;;23.25;39.16;99792.03;4484447;32;33885;-61
2021/05/28 08:03:19;;;;;;;3.37;1.50;;;;;;;23.23;39.16;99789.53;4484490;32;33788;-63
2021/05/28 08:05:49;;;;;;;2.55;1.23;;;;;;;23.25;39.16;99783.84;4484501;32;33813;-63
2021/05/28 08:08:17;;;;;;;;;;;;;;;23.25;39.17;99784.69;4485107;32;34001;-63
2021/05/28 08:10:46;;;;;;;3.67;1.45;;;;;;;23.35;39.00;99792.31;4484512;32;34067;-63
2021/05/28 08:13:13;;;;;;;2.87;1.30;;;;;;;23.26;39.15;99785.50;4484284;32;33951;-63
2021/05/28 08:15:41;;;;;;;6.03;1.50;;;;;;;23.25;39.20;99792.84;4483479;32;33691;-62
2021/05/28 08:18:09;;;;;;;4.22;1.48;;;;;;;23.24;39.22;99787.63;4484639;32;33249;-62
2021/05/28 08:20:39;;;;;;;3.85;1.45;;;;;;;23.24;39.25;99782.19;4484603;32;34484;-62
2021/05/28 08:23:06;;;;;;;2.80;1.33;;;;;;;23.25;39.24;99789.28;4484078;32;34708;-62
2021/05/28 08:25:34;;;;;;;7.28;1.70;;;;;;;23.24;39.26;99780.31;4484497;32;34439;-62
2021/05/28 08:28:02;;;;;;;5.18;1.35;;;;;;;23.24;39.29;99788.47;4484567;32;33303;-61
2021/05/28 08:30:29;;;;;;;2.62;1.40;;;;;;;23.24;39.29;99788.47;4484449;32;33674;-63
2021/05/28 08:32:57;;;;;;;5.12;1.17;;;;;;;23.24;39.31;99802.09;4483049;32;33739;-63
2021/05/28 08:35:25;;;;;;;2.90;1.27;;;;;;;23.24;39.30;99790.38;4483047;32;34210;-62
2021/05/28 08:37:52;;;;;;;2.95;1.37;;;;;;;23.26;39.32;99796.41;4484624;32;34120;-62
2021/05/28 08:40:23;;;;;;;4.97;1.58;;;;;;;23.25;39.34;99794.75;4484495;32;33824;-62
2021/05/28 08:42:51;;;;;;;4.28;1.33;;;;;;;23.25;39.35;99792.84;4484417;32;33830;-62
2021/05/28 08:45:19;;;;;;;2.12;1.30;;;;;;;23.25;39.35;99794.75;4484659;32;34370;-62
2021/05/28 08:47:47;;;;;;;2.42;1.35;;;;;;;23.25;39.34;99790.13;4484646;32;32982;-63
2021/05/28 08:50:14;;;;;;;4.43;1.65;;;;;;;23.25;39.36;99792.03;4482995;32;33650;-63
2021/05/28 08:52:42;;;;;;;1.35;1.00;;;;;;;23.25;39.37;99794.75;4484103;32;33915;-62
2021/05/28 08:55:11;;;;;;;2.55;1.10;;;;;;;23.25;39.38;99792.03;4484393;32;33589;-62
2021/05/28 08:57:38;;;;;;;2.62;1.30;;;;;;;23.24;39.39;99796.63;4484227;32;33904;-63
2021/05/28 09:00:07;;;;;;;3.95;1.30;;;;;;;23.25;39.39;99784.69;4484397;32;33533;-62
2021/05/28 09:02:36;;;;;;;2.28;1.17;;;;;;;23.25;39.40;99794.75;4484216;32;33818;-62
2021/05/28 09:05:23;;;;;;;3.78;1.27;;;;;;;23.25;39.41;99783.84;4468408;32;33785;-62
2021/05/28 09:08:00;;;;;;;2.35;1.20;;;;;;;23.26;39.39;99796.41;4468346;32;34242;-62
2021/05/28 09:10:33;;;;;;;3.75;1.40;;;;;;;23.26;39.42;99788.22;4468313;32;34334;-62
2021/05/28 09:13:22;;;;;;;2.22;1.30;;;;;;;23.25;39.45;99787.41;4470032;32;33862;-62
2021/05/28 09:16:10;;;;;;;3.03;1.30;;;;;;;23.26;39.43;99780.91;4483072;32;33794;-62
2021/05/28 09:18:48;;;;;;;3.00;1.10;;;;;;;23.27;39.44;99792.63;4482879;32;34108;-62
2021/05/28 09:21:28;;;;;;;2.42;1.20;;;;;;;23.25;39.49;99792.84;4483075;32;33891;-62
2021/05/28 09:23:56;;;;;;;2.20;1.20;;;;;;;23.25;39.51;99792.03;4480914;32;33858;-63
2021/05/28 09:26:24;;;;;;;4.37;1.27;;;;;;;23.24;39.52;99793.09;4481233;32;33771;-63
2021/05/28 09:28:54;;;;;;;4.15;1.30;;;;;;;23.24;39.53;99793.09;4482835;32;34190;-62
2021/05/28 09:31:29;;;;;;;3.45;1.12;;;;;;;23.25;39.52;99792.03;4479217;32;33989;-62
2021/05/28 09:34:02;;;;;;;2.03;1.10;;;;;;;23.24;39.52;99802.09;4481930;32;34014;-61
2021/05/28 09:36:33;;;;;;;2.35;1.30;;;;;;;23.25;39.52;99797.47;4484337;32;33700;-62
2021/05/28 09:39:11;;;;;;;3.05;1.10;;;;;;;23.24;39.53;99798.53;4481763;32;34669;-62
2021/05/28 09:41:40;;;;;;;3.50;1.33;;;;;;;23.25;39.56;99797.47;4483990;32;34426;-62
2021/05/28 09:44:17;;;;;;;2.65;1.40;;;;;;;23.24;39.57;99798.53;4481426;32;34969;-61
2021/05/28 09:46:56;;;;;;;2.22;1.17;;;;;;;23.24;39.58;99799.34;4481076;32;33769;-62
2021/05/28 09:49:25;;;;;;;1.85;1.08;;;;;;;23.26;39.56;99805.41;4483753;32;33271;-62
2021/05/28 09:52:09;;;;;;;1.48;1.17;;;;;;;23.25;39.58;99805.63;4482738;32;33589;-62
2021/05/28 09:54:37;;;;;;;2.55;1.20;;;;;;;23.26;39.56;99796.41;4466652;32;32626;-62
2021/05/28 09:57:05;;;;;;;1.87;1.10;;;;;;;23.24;39.59;99799.34;4480814;32;33492;-62
2021/05/28 09:59:46;;;;;;;3.92;1.40;;;;;;;23.24;39.60;99809.41;4483556;32;33850;-62
2021/05/28 10:02:27;;;;;;;1.65;1.10;;;;;;;23.25;39.60;99792.03;4482880;32;33821;-62
2021/05/28 10:04:57;;;;;;;1.70;1.10;;;;;;;23.25;39.61;99795.56;4483738;32;33876;-61
2021/05/28 10:07:25;;;;;;;1.70;1.15;;;;;;;23.23;39.63;99805.03;4482316;32;33541;-62
2021/05/28 10:09:53;;;;;;;2.42;1.10;;;;;;;23.24;39.63;99803.97;4483023;32;33198;-62
2021/05/28 10:12:22;;;;;;;3.00;1.30;;;;;;;23.24;39.63;99807.53;4483361;32;33802;-62
2021/05/28 10:14:51;;;;;;;2.80;1.37;;;;;;;23.25;39.63;99802.91;4482290;32;34675;-62
2021/05/28 10:17:19;;;;;;;2.37;1.10;;;;;;;23.25;39.63;99795.56;4481051;32;33820;-63
2021/05/28 10:19:47;;;;;;;2.40;1.02;;;;;;;23.25;39.63;99794.75;4482108;32;34239;-62
2021/05/28 10:22:17;;;;;;;1.73;1.20;;;;;;;23.24;39.64;99793.91;4483659;32;33687;-62
2021/05/28 10:24:44;;;;;;;1.65;1.23;;;;;;;23.25;39.65;99797.47;4482026;32;33514;-62
2021/05/28 10:27:24;;;;;;;2.80;1.05;;;;;;;23.25;39.63;99797.47;4483283;32;34713;-63
2021/05/28 10:29:53;;;;;;;1.67;1.12;;;;;;;23.26;39.63;99799.94;4482576;32;34074;-62
2021/05/28 10:32:21;;;;;;;2.37;1.08;;;;;;;23.26;39.63;99805.41;4481850;32;33842;-61
2021/05/28 10:35:14;;;;;;;1.40;1.00;;;;;;;23.25;39.67;99803.75;4482703;32;34642;-62
2021/05/28 10:37:43;;;;;;;1.37;1.00;;;;;;;23.28;39.64;99807.91;4483326;32;33732;-63
2021/05/28 10:40:30;;;;;;;2.12;1.12;;;;;;;23.25;39.68;99797.47;4483292;32;33383;-62
2021/05/28 10:43:03;;;;;;;2.47;1.15;;;;;;;23.26;39.66;99801.84;4482541;32;33889;-63
2021/05/28 10:45:57;;;;;;;2.58;0.95;;;;;;;23.25;39.70;99802.91;4481151;32;33855;-63
2021/05/28 10:48:41;;;;;;;3.05;1.20;;;;;;;23.27;39.67;99798.06;4482199;32;34275;-61
2021/05/28 10:51:21;;;;;;;2.35;1.20;;;;;;;23.25;39.70;99801.03;4481004;32;33102;-62
2021/05/28 10:53:52;;;;;;;1.33;0.90;;;;;;;23.24;39.71;99799.34;4481033;32;34900;-61
2021/05/28 10:56:43;;;;;;;2.33;1.10;;;;;;;23.24;39.73;99798.53;4479537;32;33818;-62
2021/05/28 10:59:15;;;;;;;3.78;1.25;;;;;;;23.27;39.70;99800.78;4469642;32;34395;-62
2021/05/28 11:01:46;;;;;;;2.10;1.00;;;;;;;23.24;39.73;99796.63;4480395;32;33078;-62
2021/05/28 11:04:16;;;;;;;2.58;1.30;;;;;;;23.26;39.72;99796.41;4481758;32;34711;-61
2021/05/28 11:06:56;;;;;;;1.33;0.90;;;;;;;23.25;39.75;99786.56;4474914;32;33853;-62
2021/05/28 11:09:43;;;;;;;4.03;1.42;;;;;;;23.26;39.71;99796.41;4481682;32;33561;-62
2021/05/28 11:12:26;;;;;;;2.42;1.00;;;;;;;23.26;39.72;99802.69;4482773;32;34410;-63
2021/05/28 11:15:00;;;;;;;1.65;1.00;;;;;;;23.26;39.78;99801.84;4482885;32;34750;-62
2021/05/28 11:17:28;;;;;;;2.05;1.02;;;;;;;23.24;39.79;99798.53;4482325;32;33831;-62
2021/05/28 11:19:57;;;;;;;1.98;1.00;;;;;;;23.23;39.79;99803.16;4468442;32;33190;-61
2021/05/28 11:22:51;;;;;;;2.55;1.00;;;;;;;23.24;39.80;99801.25;4482468;32;33086;-62
2021/05/28 11:25:20;;;;;;;1.87;1.05;;;;;;;23.27;39.74;99798.06;4480411;31;33874;-62
2021/05/28 11:27:57;;;;;;;2.37;1.20;;;;;;;23.24;39.80;99793.09;4482343;32;34633;-62
2021/05/28 11:30:27;;;;;;;2.97;1.25;;;;;;;23.25;39.81;99801.03;4482543;32;33683;-62
2021/05/28 11:32:54;;;;;;;2.03;1.10;;;;;;;23.24;39.81;99798.53;4482587;32;33985;-62
2021/05/28 11:35:42;;;;;;;2.42;1.20;;;;;;;23.24;39.82;99784.91;4481365;32;33814;-60
2021/05/28 11:38:11;;;;;;;2.65;1.02;;;;;;;23.24;39.82;99791.19;4483678;32;34758;-62
2021/05/28 11:40:40;;;;;;;1.85;1.20;;;;;;;23.25;39.82;99794.75;4484905;32;33811;-62
2021/05/28 11:43:09;;;;;;;2.90;1.10;;;;;;;23.25;39.84;99789.28;4484625;32;34024;-62
2021/05/28 11:45:41;;;;;;;1.65;1.00;;;;;;;23.23;39.84;99792.25;4484975;32;34029;-61
2021/05/28 11:48:10;;;;;;;3.83;1.00;;;;;;;23.24;39.84;99784.91;4484596;32;33840;-62